ACA226 CYVR-CYYC
Flight info
| Callsign | ACA226 |
|---|---|
| Flight time | 1h 11m |
| Altitude | 39000 |
| Route | DAPED DCT PETLI DCT MENBO Q983 NORET IGVEP7 |
| Aircraft | A321/M-SDE3FGHIRWY/LB1 |
Departure
| Time | 2026-05-05 00:29 |
|---|---|
| Airport | Vancouver International Airport (CYVR) |
Arrival
| Time | 2026-05-05 01:40 |
|---|---|
| Airport | Calgary International Airport (CYYC) |
| Time | Latitude | Longitude | Altitude | Speed | Heading |
|---|---|---|---|---|---|
| 2026-05-04 23:39 | 49.19178 | -123.18158 | 19 ft | 0 kts | 9° |
| 2026-05-05 00:18 | 49.19165 | -123.18162 | 19 ft | 2 kts | 9° |
| 2026-05-05 00:18 | 49.19150 | -123.18166 | 19 ft | 2 kts | 10° |
| 2026-05-05 00:18 | 49.19135 | -123.18169 | 19 ft | 2 kts | 11° |
| 2026-05-05 00:19 | 49.19122 | -123.18181 | 19 ft | 2 kts | 53° |
| 2026-05-05 00:19 | 49.19115 | -123.18203 | 19 ft | 2 kts | 86° |
| 2026-05-05 00:19 | 49.19116 | -123.18216 | 19 ft | 1 kts | 105° |
| 2026-05-05 00:19 | 49.19117 | -123.18223 | 19 ft | 0 kts | 101° |
| 2026-05-05 00:22 | 49.19117 | -123.18218 | 19 ft | 1 kts | 101° |
| 2026-05-05 00:22 | 49.19114 | -123.18200 | 19 ft | 2 kts | 101° |
| 2026-05-05 00:22 | 49.19109 | -123.18161 | 19 ft | 5 kts | 101° |
| 2026-05-05 00:22 | 49.19101 | -123.18098 | 19 ft | 6 kts | 102° |
| 2026-05-05 00:23 | 49.19070 | -123.18044 | 19 ft | 7 kts | 169° |
| 2026-05-05 00:23 | 49.19013 | -123.18053 | 19 ft | 9 kts | 189° |
| 2026-05-05 00:23 | 49.18956 | -123.18066 | 19 ft | 6 kts | 189° |
| 2026-05-05 00:23 | 49.18914 | -123.18046 | 19 ft | 7 kts | 125° |
| 2026-05-05 00:24 | 49.18899 | -123.17955 | 18 ft | 10 kts | 101° |
| 2026-05-05 00:24 | 49.18882 | -123.17815 | 15 ft | 14 kts | 99° |
| 2026-05-05 00:24 | 49.18864 | -123.17648 | 15 ft | 16 kts | 100° |
| 2026-05-05 00:24 | 49.18843 | -123.17468 | 15 ft | 18 kts | 99° |
| 2026-05-05 00:25 | 49.18821 | -123.17272 | 15 ft | 19 kts | 100° |
| 2026-05-05 00:25 | 49.18798 | -123.17066 | 16 ft | 20 kts | 101° |
| 2026-05-05 00:25 | 49.18773 | -123.16849 | 15 ft | 21 kts | 100° |
| 2026-05-05 00:25 | 49.18747 | -123.16623 | 16 ft | 20 kts | 101° |
| 2026-05-05 00:26 | 49.18723 | -123.16411 | 16 ft | 16 kts | 100° |
| 2026-05-05 00:26 | 49.18684 | -123.16273 | 15 ft | 14 kts | 135° |
| 2026-05-05 00:26 | 49.18633 | -123.16150 | 15 ft | 11 kts | 100° |
| 2026-05-05 00:26 | 49.18622 | -123.16070 | 15 ft | 5 kts | 115° |
| 2026-05-05 00:27 | 49.18602 | -123.16040 | 14 ft | 2 kts | 155° |
| 2026-05-05 00:27 | 49.18586 | -123.16034 | 15 ft | 2 kts | 172° |
| 2026-05-05 00:27 | 49.18567 | -123.16035 | 15 ft | 3 kts | 189° |
| 2026-05-05 00:27 | 49.18537 | -123.16044 | 15 ft | 5 kts | 191° |
| 2026-05-05 00:28 | 49.18493 | -123.16063 | 16 ft | 6 kts | 213° |
| 2026-05-05 00:28 | 49.18479 | -123.16132 | 15 ft | 8 kts | 277° |
| 2026-05-05 00:28 | 49.18506 | -123.16364 | 16 ft | 56 kts | 280° |
| 2026-05-05 00:28 | 49.18618 | -123.17353 | 16 ft | 131 kts | 280° |
| 2026-05-05 00:29 | 49.18794 | -123.18976 | 251 ft | 168 kts | 277° |
| 2026-05-05 00:29 | 49.18980 | -123.20709 | 1018 ft | 170 kts | 278° |
| 2026-05-05 00:29 | 49.18983 | -123.22493 | 1840 ft | 169 kts | 252° |
| 2026-05-05 00:29 | 49.18359 | -123.24040 | 2349 ft | 176 kts | 234° |
| 2026-05-05 00:30 | 49.17510 | -123.25481 | 2701 ft | 194 kts | 216° |
| 2026-05-05 00:30 | 49.16164 | -123.26067 | 3042 ft | 213 kts | 178° |
| 2026-05-05 00:30 | 49.14708 | -123.25331 | 3415 ft | 230 kts | 151° |
| 2026-05-05 00:30 | 49.13272 | -123.23967 | 3740 ft | 253 kts | 146° |
| 2026-05-05 00:31 | 49.11751 | -123.22415 | 4200 ft | 271 kts | 146° |
| 2026-05-05 00:31 | 49.10105 | -123.20714 | 4900 ft | 280 kts | 145° |
| 2026-05-05 00:31 | 49.08635 | -123.18699 | 5690 ft | 284 kts | 122° |
| 2026-05-05 00:31 | 49.08042 | -123.15871 | 6508 ft | 283 kts | 90° |
| 2026-05-05 00:32 | 49.08201 | -123.12935 | 7366 ft | 284 kts | 80° |
| 2026-05-05 00:32 | 49.08500 | -123.09958 | 8203 ft | 287 kts | 79° |
| 2026-05-05 00:32 | 49.08782 | -123.06906 | 9061 ft | 290 kts | 80° |
| 2026-05-05 00:32 | 49.09020 | -123.03770 | 10008 ft | 293 kts | 81° |
| 2026-05-05 00:33 | 49.09223 | -123.00614 | 10674 ft | 302 kts | 82° |
| 2026-05-05 00:33 | 49.09411 | -122.97363 | 11110 ft | 319 kts | 82° |
| 2026-05-05 00:33 | 49.09596 | -122.93860 | 11564 ft | 334 kts | 82° |
| 2026-05-05 00:33 | 49.09776 | -122.90179 | 12258 ft | 340 kts | 82° |
| 2026-05-05 00:34 | 49.09953 | -122.86410 | 13073 ft | 343 kts | 82° |
| 2026-05-05 00:34 | 49.10127 | -122.82652 | 13823 ft | 347 kts | 81° |
| 2026-05-05 00:34 | 49.10301 | -122.78857 | 14531 ft | 351 kts | 81° |
| 2026-05-05 00:34 | 49.10478 | -122.74980 | 15204 ft | 354 kts | 81° |
| 2026-05-05 00:35 | 49.10647 | -122.71231 | 15856 ft | 357 kts | 81° |
| 2026-05-05 00:35 | 49.10815 | -122.67462 | 16517 ft | 360 kts | 81° |
| 2026-05-05 00:35 | 49.10985 | -122.63666 | 17120 ft | 364 kts | 81° |
| 2026-05-05 00:35 | 49.11155 | -122.59791 | 17764 ft | 368 kts | 81° |
| 2026-05-05 00:36 | 49.11325 | -122.55883 | 18376 ft | 371 kts | 81° |
| 2026-05-05 00:36 | 49.11493 | -122.51963 | 18962 ft | 374 kts | 81° |
| 2026-05-05 00:36 | 49.11659 | -122.48048 | 19587 ft | 377 kts | 81° |
| 2026-05-05 00:36 | 49.11828 | -122.44035 | 20189 ft | 379 kts | 81° |
| 2026-05-05 00:37 | 49.11995 | -122.40054 | 20773 ft | 382 kts | 80° |
| 2026-05-05 00:37 | 49.12165 | -122.35961 | 21353 ft | 385 kts | 80° |
| 2026-05-05 00:37 | 49.12333 | -122.31918 | 21928 ft | 388 kts | 81° |
| 2026-05-05 00:37 | 49.12503 | -122.27786 | 22471 ft | 392 kts | 80° |
| 2026-05-05 00:38 | 49.12671 | -122.23680 | 23015 ft | 395 kts | 80° |
| 2026-05-05 00:38 | 49.12840 | -122.19503 | 23563 ft | 397 kts | 80° |
| 2026-05-05 00:38 | 49.13009 | -122.15277 | 24108 ft | 400 kts | 80° |
| 2026-05-05 00:38 | 49.13177 | -122.11071 | 24624 ft | 403 kts | 80° |
| 2026-05-05 00:39 | 49.13348 | -122.06723 | 25134 ft | 406 kts | 80° |
| 2026-05-05 00:39 | 49.13515 | -122.02399 | 25611 ft | 409 kts | 80° |
| 2026-05-05 00:39 | 49.13683 | -121.98055 | 26080 ft | 412 kts | 80° |
| 2026-05-05 00:39 | 49.13850 | -121.93726 | 26523 ft | 415 kts | 80° |
| 2026-05-05 00:40 | 49.14014 | -121.89353 | 26938 ft | 419 kts | 80° |
| 2026-05-05 00:40 | 49.14181 | -121.84893 | 27366 ft | 422 kts | 79° |
| 2026-05-05 00:40 | 49.14345 | -121.80429 | 27806 ft | 424 kts | 80° |
| 2026-05-05 00:40 | 49.14508 | -121.75939 | 28220 ft | 427 kts | 79° |
| 2026-05-05 00:41 | 49.14671 | -121.71411 | 28633 ft | 429 kts | 79° |
| 2026-05-05 00:41 | 49.14904 | -121.66877 | 29041 ft | 429 kts | 77° |
| 2026-05-05 00:41 | 49.15272 | -121.62392 | 29429 ft | 429 kts | 75° |
| 2026-05-05 00:41 | 49.15675 | -121.57906 | 29800 ft | 432 kts | 75° |
| 2026-05-05 00:42 | 49.16087 | -121.53372 | 30166 ft | 434 kts | 75° |
| 2026-05-05 00:42 | 49.16498 | -121.48834 | 30524 ft | 436 kts | 75° |
| 2026-05-05 00:42 | 49.16907 | -121.44249 | 30913 ft | 437 kts | 74° |
| 2026-05-05 00:42 | 49.17321 | -121.39610 | 31265 ft | 439 kts | 75° |
| 2026-05-05 00:43 | 49.17731 | -121.34980 | 31615 ft | 440 kts | 75° |
| 2026-05-05 00:43 | 49.18139 | -121.30327 | 32089 ft | 439 kts | 75° |
| 2026-05-05 00:43 | 49.18538 | -121.25738 | 32553 ft | 437 kts | 75° |
| 2026-05-05 00:43 | 49.18934 | -121.21192 | 32975 ft | 436 kts | 75° |
| 2026-05-05 00:44 | 49.19331 | -121.16599 | 33440 ft | 434 kts | 75° |
| 2026-05-05 00:44 | 49.19720 | -121.12076 | 33890 ft | 432 kts | 74° |
| 2026-05-05 00:44 | 49.20109 | -121.07524 | 34335 ft | 430 kts | 74° |
| 2026-05-05 00:44 | 49.20495 | -121.03013 | 34742 ft | 430 kts | 74° |
| 2026-05-05 00:45 | 49.20876 | -120.98533 | 35205 ft | 428 kts | 74° |
| 2026-05-05 00:45 | 49.21254 | -120.94063 | 35690 ft | 426 kts | 73° |
| 2026-05-05 00:45 | 49.21628 | -120.89613 | 36139 ft | 423 kts | 73° |
| 2026-05-05 00:45 | 49.22001 | -120.85162 | 36522 ft | 422 kts | 73° |
| 2026-05-05 00:46 | 49.22371 | -120.80728 | 36861 ft | 421 kts | 73° |
| 2026-05-05 00:46 | 49.22740 | -120.76292 | 37158 ft | 421 kts | 73° |
| 2026-05-05 00:46 | 49.23108 | -120.71867 | 37405 ft | 422 kts | 73° |
| 2026-05-05 00:46 | 49.23475 | -120.67433 | 37651 ft | 423 kts | 72° |
| 2026-05-05 00:47 | 49.23838 | -120.63005 | 37858 ft | 424 kts | 72° |
| 2026-05-05 00:47 | 49.24201 | -120.58559 | 38046 ft | 425 kts | 72° |
| 2026-05-05 00:47 | 49.24565 | -120.54086 | 38211 ft | 426 kts | 72° |
| 2026-05-05 00:47 | 49.24929 | -120.49580 | 38424 ft | 427 kts | 72° |
| 2026-05-05 00:48 | 49.25291 | -120.45061 | 38609 ft | 428 kts | 72° |
| 2026-05-05 00:48 | 49.25652 | -120.40556 | 38765 ft | 429 kts | 72° |
| 2026-05-05 00:48 | 49.26009 | -120.36054 | 38920 ft | 430 kts | 72° |
| 2026-05-05 00:48 | 49.26366 | -120.31548 | 39039 ft | 431 kts | 73° |
| 2026-05-05 00:49 | 49.26722 | -120.27017 | 39040 ft | 432 kts | 73° |
| 2026-05-05 00:49 | 49.27442 | -120.17779 | 39043 ft | 432 kts | 73° |
| 2026-05-05 00:50 | 49.28146 | -120.08678 | 39041 ft | 432 kts | 73° |
| 2026-05-05 00:50 | 49.28844 | -119.99548 | 39021 ft | 432 kts | 72° |
| 2026-05-05 00:51 | 49.29533 | -119.90446 | 39005 ft | 434 kts | 72° |
| 2026-05-05 00:51 | 49.30214 | -119.81329 | 38999 ft | 433 kts | 72° |
| 2026-05-05 00:52 | 49.30951 | -119.72223 | 38985 ft | 430 kts | 70° |
| 2026-05-05 00:52 | 49.32196 | -119.63435 | 38962 ft | 419 kts | 63° |
| 2026-05-05 00:53 | 49.34026 | -119.55086 | 38929 ft | 411 kts | 57° |
| 2026-05-05 00:53 | 49.36370 | -119.47231 | 38921 ft | 405 kts | 52° |
| 2026-05-05 00:54 | 49.38908 | -119.39505 | 38939 ft | 404 kts | 52° |
| 2026-05-05 00:54 | 49.41426 | -119.31827 | 38953 ft | 404 kts | 53° |
| 2026-05-05 00:55 | 49.43948 | -119.24109 | 38974 ft | 405 kts | 52° |
| 2026-05-05 00:55 | 49.46451 | -119.16425 | 38980 ft | 406 kts | 53° |
| 2026-05-05 00:56 | 49.48965 | -119.08674 | 38973 ft | 405 kts | 52° |
| 2026-05-05 00:56 | 49.51477 | -119.00903 | 38968 ft | 403 kts | 52° |
| 2026-05-05 00:57 | 49.53951 | -118.93236 | 38969 ft | 402 kts | 52° |
| 2026-05-05 00:57 | 49.56467 | -118.85405 | 38976 ft | 404 kts | 52° |
| 2026-05-05 00:58 | 49.58943 | -118.77685 | 38975 ft | 404 kts | 52° |
| 2026-05-05 00:58 | 49.61407 | -118.69965 | 38979 ft | 402 kts | 52° |
| 2026-05-05 00:59 | 49.63862 | -118.62256 | 38973 ft | 402 kts | 52° |
| 2026-05-05 00:59 | 49.66309 | -118.54548 | 38975 ft | 402 kts | 52° |
| 2026-05-05 01:00 | 49.68754 | -118.46819 | 38982 ft | 401 kts | 52° |
| 2026-05-05 01:00 | 49.71191 | -118.39100 | 38981 ft | 402 kts | 52° |
| 2026-05-05 01:01 | 49.73606 | -118.31419 | 38974 ft | 401 kts | 52° |
| 2026-05-05 01:01 | 49.76054 | -118.23614 | 38961 ft | 402 kts | 52° |
| 2026-05-05 01:02 | 49.78482 | -118.15845 | 38967 ft | 402 kts | 52° |
| 2026-05-05 01:02 | 49.80907 | -118.08060 | 38976 ft | 402 kts | 52° |
| 2026-05-05 01:03 | 49.83315 | -118.00306 | 38979 ft | 402 kts | 52° |
| 2026-05-05 01:03 | 49.85719 | -117.92544 | 38981 ft | 401 kts | 52° |
| 2026-05-05 01:04 | 49.88125 | -117.84744 | 38982 ft | 400 kts | 52° |
| 2026-05-05 01:04 | 49.91694 | -117.73128 | 38984 ft | 400 kts | 52° |
| 2026-05-05 01:05 | 49.94065 | -117.65380 | 38980 ft | 399 kts | 52° |
| 2026-05-05 01:05 | 49.96436 | -117.57618 | 38981 ft | 401 kts | 52° |
| 2026-05-05 01:06 | 49.98812 | -117.49816 | 38976 ft | 402 kts | 52° |
| 2026-05-05 01:06 | 50.01179 | -117.42007 | 38978 ft | 402 kts | 52° |
| 2026-05-05 01:07 | 50.03550 | -117.34158 | 38972 ft | 401 kts | 52° |
| 2026-05-05 01:07 | 50.05905 | -117.26344 | 38979 ft | 403 kts | 52° |
| 2026-05-05 01:08 | 50.08262 | -117.18497 | 38978 ft | 401 kts | 52° |
| 2026-05-05 01:08 | 50.10621 | -117.10617 | 38995 ft | 402 kts | 52° |
| 2026-05-05 01:09 | 50.12966 | -117.02765 | 38991 ft | 402 kts | 52° |
| 2026-05-05 01:09 | 50.15309 | -116.94888 | 39001 ft | 402 kts | 52° |
| 2026-05-05 01:10 | 50.17640 | -116.87019 | 39012 ft | 402 kts | 52° |
| 2026-05-05 01:10 | 50.19999 | -116.79045 | 39012 ft | 401 kts | 52° |
| 2026-05-05 01:11 | 50.22362 | -116.71020 | 38993 ft | 402 kts | 52° |
| 2026-05-05 01:11 | 50.23550 | -116.66979 | 38727 ft | 402 kts | 52° |
| 2026-05-05 01:11 | 50.24699 | -116.63052 | 38455 ft | 399 kts | 52° |
| 2026-05-05 01:12 | 50.25855 | -116.59097 | 38136 ft | 397 kts | 52° |
| 2026-05-05 01:12 | 50.26978 | -116.55255 | 37751 ft | 393 kts | 52° |
| 2026-05-05 01:12 | 50.28103 | -116.51394 | 37297 ft | 391 kts | 52° |
| 2026-05-05 01:12 | 50.29227 | -116.47548 | 36756 ft | 392 kts | 52° |
| 2026-05-05 01:13 | 50.30355 | -116.43681 | 36194 ft | 392 kts | 52° |
| 2026-05-05 01:13 | 50.31483 | -116.39806 | 35522 ft | 393 kts | 52° |
| 2026-05-05 01:13 | 50.32613 | -116.35906 | 34867 ft | 393 kts | 52° |
| 2026-05-05 01:13 | 50.33736 | -116.32034 | 34197 ft | 394 kts | 53° |
| 2026-05-05 01:14 | 50.34860 | -116.28148 | 33580 ft | 394 kts | 53° |
| 2026-05-05 01:14 | 50.35978 | -116.24277 | 32935 ft | 395 kts | 53° |
| 2026-05-05 01:14 | 50.37102 | -116.20380 | 32159 ft | 399 kts | 54° |
| 2026-05-05 01:14 | 50.38251 | -116.16381 | 31289 ft | 406 kts | 55° |
| 2026-05-05 01:15 | 50.39317 | -116.12244 | 30606 ft | 411 kts | 58° |
| 2026-05-05 01:15 | 50.40287 | -116.07980 | 29993 ft | 411 kts | 59° |
| 2026-05-05 01:15 | 50.41209 | -116.03824 | 29423 ft | 408 kts | 60° |
| 2026-05-05 01:15 | 50.42140 | -115.99591 | 28856 ft | 405 kts | 60° |
| 2026-05-05 01:16 | 50.43050 | -115.95456 | 28292 ft | 403 kts | 60° |
| 2026-05-05 01:16 | 50.43949 | -115.91364 | 27729 ft | 400 kts | 60° |
| 2026-05-05 01:16 | 50.44846 | -115.87277 | 27175 ft | 398 kts | 60° |
| 2026-05-05 01:16 | 50.45742 | -115.83195 | 26676 ft | 393 kts | 60° |
| 2026-05-05 01:17 | 50.46622 | -115.79182 | 26165 ft | 390 kts | 60° |
| 2026-05-05 01:17 | 50.47496 | -115.75181 | 25620 ft | 388 kts | 61° |
| 2026-05-05 01:17 | 50.48374 | -115.71169 | 25074 ft | 386 kts | 61° |
| 2026-05-05 01:17 | 50.49269 | -115.67055 | 24551 ft | 383 kts | 62° |
| 2026-05-05 01:18 | 50.50126 | -115.63107 | 24025 ft | 381 kts | 61° |
| 2026-05-05 01:18 | 50.50990 | -115.59129 | 23520 ft | 378 kts | 61° |
| 2026-05-05 01:18 | 50.51832 | -115.55250 | 23027 ft | 376 kts | 62° |
| 2026-05-05 01:18 | 50.52673 | -115.51360 | 22531 ft | 373 kts | 61° |
| 2026-05-05 01:19 | 50.53503 | -115.47504 | 22063 ft | 370 kts | 61° |
| 2026-05-05 01:19 | 50.54313 | -115.43747 | 21594 ft | 368 kts | 62° |
| 2026-05-05 01:19 | 50.55136 | -115.39922 | 21105 ft | 366 kts | 62° |
| 2026-05-05 01:19 | 50.55943 | -115.36163 | 20630 ft | 364 kts | 62° |
| 2026-05-05 01:20 | 50.56742 | -115.32425 | 20175 ft | 362 kts | 62° |
| 2026-05-05 01:20 | 50.57557 | -115.28610 | 19661 ft | 361 kts | 63° |
| 2026-05-05 01:20 | 50.58346 | -115.24907 | 19178 ft | 359 kts | 63° |
| 2026-05-05 01:20 | 50.59137 | -115.21189 | 18712 ft | 357 kts | 63° |
| 2026-05-05 01:21 | 50.59939 | -115.17416 | 18221 ft | 355 kts | 63° |
| 2026-05-05 01:21 | 50.60723 | -115.13729 | 17752 ft | 354 kts | 64° |
| 2026-05-05 01:21 | 50.61498 | -115.10073 | 17262 ft | 353 kts | 64° |
| 2026-05-05 01:21 | 50.62269 | -115.06429 | 16784 ft | 352 kts | 64° |
| 2026-05-05 01:22 | 50.63034 | -115.02811 | 16293 ft | 352 kts | 65° |
| 2026-05-05 01:22 | 50.63803 | -114.99190 | 15813 ft | 351 kts | 65° |
| 2026-05-05 01:22 | 50.64578 | -114.95525 | 15323 ft | 351 kts | 66° |
| 2026-05-05 01:22 | 50.65344 | -114.91902 | 14842 ft | 350 kts | 66° |
| 2026-05-05 01:23 | 50.66105 | -114.88287 | 14364 ft | 350 kts | 67° |
| 2026-05-05 01:23 | 50.66864 | -114.84666 | 13870 ft | 349 kts | 67° |
| 2026-05-05 01:23 | 50.67612 | -114.81066 | 13649 ft | 341 kts | 67° |
| 2026-05-05 01:23 | 50.68330 | -114.77584 | 13474 ft | 336 kts | 67° |
| 2026-05-05 01:24 | 50.69047 | -114.74108 | 13297 ft | 332 kts | 67° |
| 2026-05-05 01:24 | 50.69766 | -114.70646 | 13140 ft | 328 kts | 67° |
| 2026-05-05 01:24 | 50.70499 | -114.67261 | 12955 ft | 321 kts | 63° |
| 2026-05-05 01:24 | 50.71598 | -114.64372 | 12833 ft | 300 kts | 46° |
| 2026-05-05 01:25 | 50.73003 | -114.61966 | 12849 ft | 279 kts | 39° |
| 2026-05-05 01:25 | 50.74336 | -114.59843 | 12861 ft | 271 kts | 39° |
| 2026-05-05 01:25 | 50.75667 | -114.57739 | 12785 ft | 273 kts | 40° |
| 2026-05-05 01:25 | 50.77005 | -114.55598 | 12459 ft | 272 kts | 41° |
| 2026-05-05 01:26 | 50.78352 | -114.53410 | 12130 ft | 270 kts | 41° |
| 2026-05-05 01:26 | 50.79645 | -114.51298 | 11804 ft | 268 kts | 41° |
| 2026-05-05 01:26 | 50.80934 | -114.49216 | 11476 ft | 265 kts | 40° |
| 2026-05-05 01:26 | 50.82255 | -114.47197 | 11174 ft | 262 kts | 39° |
| 2026-05-05 01:27 | 50.83580 | -114.45186 | 10850 ft | 260 kts | 40° |
| 2026-05-05 01:27 | 50.84885 | -114.43211 | 10527 ft | 258 kts | 40° |
| 2026-05-05 01:27 | 50.86173 | -114.41254 | 10198 ft | 256 kts | 41° |
| 2026-05-05 01:27 | 50.87475 | -114.39271 | 9889 ft | 253 kts | 40° |
| 2026-05-05 01:28 | 50.88733 | -114.37350 | 9552 ft | 251 kts | 40° |
| 2026-05-05 01:28 | 50.89989 | -114.35435 | 9216 ft | 248 kts | 40° |
| 2026-05-05 01:28 | 50.91151 | -114.33495 | 8999 ft | 243 kts | 54° |
| 2026-05-05 01:28 | 50.91685 | -114.31014 | 8990 ft | 244 kts | 82° |
| 2026-05-05 01:29 | 50.91648 | -114.28278 | 9004 ft | 248 kts | 88° |
| 2026-05-05 01:29 | 50.91555 | -114.25534 | 8989 ft | 250 kts | 88° |
| 2026-05-05 01:29 | 50.91465 | -114.22767 | 8988 ft | 249 kts | 88° |
| 2026-05-05 01:29 | 50.91352 | -114.19991 | 8989 ft | 247 kts | 95° |
| 2026-05-05 01:30 | 50.90615 | -114.17559 | 8958 ft | 252 kts | 132° |
| 2026-05-05 01:30 | 50.89068 | -114.16167 | 8908 ft | 255 kts | 168° |
| 2026-05-05 01:30 | 50.87280 | -114.16028 | 8563 ft | 256 kts | 182° |
| 2026-05-05 01:30 | 50.85493 | -114.16148 | 8350 ft | 250 kts | 183° |
| 2026-05-05 01:31 | 50.83766 | -114.16232 | 8186 ft | 242 kts | 180° |
| 2026-05-05 01:31 | 50.82008 | -114.16214 | 7978 ft | 236 kts | 179° |
| 2026-05-05 01:31 | 50.80349 | -114.15953 | 7668 ft | 233 kts | 157° |
| 2026-05-05 01:31 | 50.79129 | -114.14430 | 7348 ft | 219 kts | 112° |
| 2026-05-05 01:32 | 50.78898 | -114.12198 | 7048 ft | 202 kts | 71° |
| 2026-05-05 01:32 | 50.79478 | -114.10278 | 6760 ft | 194 kts | 46° |
| 2026-05-05 01:32 | 50.80523 | -114.08965 | 6514 ft | 188 kts | 23° |
| 2026-05-05 01:32 | 50.81756 | -114.08232 | 6502 ft | 189 kts | 19° |
| 2026-05-05 01:33 | 50.82986 | -114.07504 | 6494 ft | 190 kts | 20° |
| 2026-05-05 01:33 | 50.84215 | -114.06738 | 6487 ft | 188 kts | 21° |
| 2026-05-05 01:33 | 50.85440 | -114.05958 | 6487 ft | 189 kts | 21° |
| 2026-05-05 01:33 | 50.86652 | -114.05170 | 6486 ft | 189 kts | 21° |
| 2026-05-05 01:34 | 50.87862 | -114.04379 | 6488 ft | 188 kts | 21° |
| 2026-05-05 01:34 | 50.89081 | -114.03580 | 6479 ft | 187 kts | 20° |
| 2026-05-05 01:34 | 50.90311 | -114.02853 | 6475 ft | 188 kts | 16° |
| 2026-05-05 01:34 | 50.91583 | -114.02399 | 6514 ft | 183 kts | 7° |
| 2026-05-05 01:35 | 50.92769 | -114.02228 | 6535 ft | 164 kts | 3° |
| 2026-05-05 01:35 | 50.93857 | -114.02174 | 6471 ft | 146 kts | 1° |
| 2026-05-05 01:35 | 50.94824 | -114.02155 | 6390 ft | 133 kts | 1° |
| 2026-05-05 01:35 | 50.95739 | -114.02146 | 6210 ft | 131 kts | 1° |
| 2026-05-05 01:36 | 50.96650 | -114.02140 | 6033 ft | 130 kts | 1° |
| 2026-05-05 01:36 | 50.97555 | -114.02135 | 5853 ft | 130 kts | 0° |
| 2026-05-05 01:36 | 50.98472 | -114.02134 | 5681 ft | 130 kts | 0° |
| 2026-05-05 01:36 | 50.99418 | -114.02133 | 5526 ft | 130 kts | 1° |
| 2026-05-05 01:37 | 51.00348 | -114.02132 | 5349 ft | 130 kts | 0° |
| 2026-05-05 01:37 | 51.01275 | -114.02134 | 5165 ft | 129 kts | 1° |
| 2026-05-05 01:37 | 51.02164 | -114.02134 | 4981 ft | 129 kts | 1° |
| 2026-05-05 01:37 | 51.03067 | -114.02133 | 4803 ft | 128 kts | 1° |
| 2026-05-05 01:38 | 51.03954 | -114.02135 | 4639 ft | 128 kts | 1° |
| 2026-05-05 01:38 | 51.04845 | -114.02127 | 4478 ft | 127 kts | 2° |
| 2026-05-05 01:38 | 51.05730 | -114.02137 | 4335 ft | 128 kts | 0° |
| 2026-05-05 01:38 | 51.06620 | -114.02147 | 4141 ft | 127 kts | 2° |
| 2026-05-05 01:39 | 51.07493 | -114.02138 | 3966 ft | 127 kts | 2° |
| 2026-05-05 01:39 | 51.08378 | -114.02139 | 3812 ft | 125 kts | 2° |
| 2026-05-05 01:39 | 51.09234 | -114.02148 | 3663 ft | 123 kts | 2° |
| 2026-05-05 01:39 | 51.10086 | -114.02140 | 3541 ft | 116 kts | 360° |
| 2026-05-05 01:40 | 51.10773 | -114.02132 | 3542 ft | 68 kts | 360° |
| 2026-05-05 01:40 | 51.11115 | -114.02131 | 3548 ft | 38 kts | 1° |
| 2026-05-05 01:40 | 51.11360 | -114.02129 | 3549 ft | 33 kts | 359° |
| 2026-05-05 01:40 | 51.11512 | -114.02125 | 3552 ft | 11 kts | 8° |
| 2026-05-05 01:41 | 51.11590 | -114.02087 | 3552 ft | 11 kts | 27° |
| 2026-05-05 01:41 | 51.11662 | -114.02024 | 3552 ft | 11 kts | 30° |
| 2026-05-05 01:41 | 51.11731 | -114.01955 | 3552 ft | 11 kts | 41° |
| 2026-05-05 01:41 | 51.11763 | -114.01854 | 3552 ft | 8 kts | 66° |
| 2026-05-05 01:42 | 51.11811 | -114.01798 | 3551 ft | 9 kts | 11° |
| 2026-05-05 01:42 | 51.11882 | -114.01796 | 3551 ft | 11 kts | 0° |
| 2026-05-05 01:42 | 51.11973 | -114.01796 | 3551 ft | 14 kts | 0° |
| 2026-05-05 01:42 | 51.12089 | -114.01794 | 3551 ft | 17 kts | 1° |
| 2026-05-05 01:43 | 51.12220 | -114.01789 | 3551 ft | 18 kts | 359° |
| 2026-05-05 01:43 | 51.12350 | -114.01793 | 3551 ft | 18 kts | 359° |
| 2026-05-05 01:43 | 51.12477 | -114.01795 | 3551 ft | 18 kts | 359° |
| 2026-05-05 01:43 | 51.12569 | -114.01790 | 3551 ft | 10 kts | 19° |
| 2026-05-05 01:44 | 51.12606 | -114.01718 | 3549 ft | 9 kts | 60° |
| 2026-05-05 01:44 | 51.12669 | -114.01680 | 3549 ft | 10 kts | 359° |
| 2026-05-05 01:44 | 51.12748 | -114.01680 | 3549 ft | 12 kts | 0° |
| 2026-05-05 01:44 | 51.12841 | -114.01678 | 3549 ft | 14 kts | 0° |
| 2026-05-05 01:45 | 51.12945 | -114.01681 | 3549 ft | 15 kts | 359° |
| 2026-05-05 01:45 | 51.13046 | -114.01680 | 3548 ft | 11 kts | 0° |
| 2026-05-05 01:45 | 51.13103 | -114.01679 | 3549 ft | 6 kts | 0° |
| 2026-05-05 01:45 | 51.13151 | -114.01685 | 3549 ft | 7 kts | 346° |
| 2026-05-05 01:46 | 51.13189 | -114.01689 | 3548 ft | 6 kts | 23° |
| 2026-05-05 01:46 | 51.13218 | -114.01632 | 3547 ft | 5 kts | 56° |
| 2026-05-05 01:46 | 51.13236 | -114.01589 | 3547 ft | 3 kts | 56° |
| 2026-05-05 01:46 | 51.13245 | -114.01570 | 3547 ft | 0 kts | 55° |